createdAt,value
2023-02-05T00:00:27.951Z,2.70
2023-02-05T00:02:54.864Z,3.17
2023-02-05T00:05:21.837Z,2.93
2023-02-05T00:07:48.736Z,2.60
2023-02-05T00:10:16.706Z,2.70
2023-02-05T00:12:43.646Z,2.63
2023-02-05T00:15:10.831Z,2.43
2023-02-05T00:17:37.793Z,2.20
2023-02-05T00:20:05.932Z,2.17
2023-02-05T00:22:33.174Z,2.10
2023-02-05T00:25:00.135Z,2.30
2023-02-05T00:27:27.035Z,1.90
2023-02-05T00:29:53.869Z,2.20
2023-02-05T00:32:20.703Z,2.13
2023-02-05T00:34:47.580Z,2.00
2023-02-05T00:37:14.545Z,2.00
2023-02-05T00:39:41.418Z,2.17
2023-02-05T00:42:08.289Z,2.07
2023-02-05T00:44:35.246Z,1.97
2023-02-05T00:47:02.090Z,2.17
2023-02-05T00:49:29.034Z,2.13
2023-02-05T00:51:55.874Z,2.00
2023-02-05T00:54:23.332Z,1.90
2023-02-05T00:56:50.190Z,2.27
2023-02-05T00:59:17.044Z,2.10
2023-02-05T01:01:43.975Z,2.00
2023-02-05T01:04:10.870Z,1.93
2023-02-05T01:06:40.666Z,1.87
2023-02-05T01:09:07.552Z,2.17
2023-02-05T01:11:34.439Z,1.63
2023-02-05T01:14:01.325Z,1.80
2023-02-05T01:16:28.259Z,2.03
2023-02-05T01:18:56.834Z,2.23
2023-02-05T01:21:24.999Z,1.60
2023-02-05T01:23:52.253Z,1.83
2023-02-05T01:26:19.230Z,2.20
2023-02-05T01:28:46.223Z,1.77
2023-02-05T01:31:13.218Z,1.90
2023-02-05T01:33:40.151Z,2.00
2023-02-05T01:36:07.206Z,2.00
2023-02-05T01:38:34.130Z,1.90
2023-02-05T01:41:01.165Z,1.60
2023-02-05T01:43:28.349Z,1.90
2023-02-05T01:46:06.791Z,1.63
2023-02-05T01:48:42.549Z,1.90
2023-02-05T01:51:14.043Z,1.77
2023-02-05T01:53:41.635Z,1.60
2023-02-05T01:56:12.763Z,2.07
2023-02-05T01:58:51.939Z,1.77
2023-02-05T02:01:19.820Z,1.50
2023-02-05T02:03:48.125Z,1.80
2023-02-05T02:06:15.085Z,1.83
2023-02-05T02:08:42.091Z,1.90
2023-02-05T02:11:14.237Z,1.60
2023-02-05T02:13:41.582Z,1.93
2023-02-05T02:16:09.079Z,2.30
2023-02-05T02:18:38.414Z,1.80
2023-02-05T02:21:29.403Z,1.77
2023-02-05T02:23:59.467Z,1.80
2023-02-05T02:27:00.118Z,2.10
2023-02-05T02:29:37.783Z,1.90
2023-02-05T02:32:37.308Z,1.97
2023-02-05T02:35:10.876Z,1.90
2023-02-05T02:37:47.123Z,1.37
2023-02-05T02:40:26.172Z,1.77
2023-02-05T02:43:30.651Z,1.70
2023-02-05T02:46:12.183Z,1.83
2023-02-05T02:48:41.650Z,2.20
2023-02-05T02:51:11.442Z,2.20
2023-02-05T02:53:44.682Z,2.03
2023-02-05T02:56:13.710Z,1.90
2023-02-05T02:58:55.151Z,2.00
2023-02-05T03:01:28.494Z,1.83
2023-02-05T03:04:03.896Z,1.50
2023-02-05T03:06:32.784Z,1.70
2023-02-05T03:09:35.137Z,2.00
2023-02-05T03:12:02.753Z,2.03
2023-02-05T03:14:30.761Z,2.03
2023-02-05T03:16:59.617Z,1.90
2023-02-05T03:19:27.508Z,2.10
2023-02-05T03:22:02.139Z,2.03
2023-02-05T03:24:30.832Z,1.63
2023-02-05T03:26:58.433Z,2.10
2023-02-05T03:29:29.873Z,2.03
2023-02-05T03:32:18.854Z,1.70
2023-02-05T03:34:59.503Z,2.20
2023-02-05T03:37:45.463Z,1.83
2023-02-05T03:40:19.219Z,1.80
2023-02-05T03:43:16.217Z,1.80
2023-02-05T03:46:07.522Z,1.90
2023-02-05T03:49:00.544Z,2.00
2023-02-05T03:51:44.500Z,1.40
2023-02-05T03:54:30.606Z,1.53
2023-02-05T03:57:16.129Z,1.57
2023-02-05T03:59:46.097Z,2.10
2023-02-05T04:02:13.982Z,1.60
2023-02-05T04:04:43.567Z,2.13
2023-02-05T04:07:10.564Z,1.67
2023-02-05T04:09:38.518Z,1.33
2023-02-05T04:12:05.707Z,1.67
2023-02-05T04:14:33.834Z,1.80
2023-02-05T04:17:01.009Z,1.63
2023-02-05T04:19:28.081Z,1.60
2023-02-05T04:21:58.005Z,1.70
2023-02-05T04:24:25.388Z,1.93
2023-02-05T04:26:52.973Z,1.60
2023-02-05T04:29:20.588Z,1.70
2023-02-05T04:31:50.598Z,1.73
2023-02-05T04:34:17.525Z,1.53
2023-02-05T04:36:45.681Z,1.97
2023-02-05T04:39:12.945Z,1.90
2023-02-05T04:41:40.796Z,1.97
2023-02-05T04:44:07.698Z,1.70
2023-02-05T04:46:34.546Z,1.80
2023-02-05T04:49:01.554Z,1.70
2023-02-05T04:51:28.480Z,1.30
2023-02-05T04:53:55.437Z,1.50
2023-02-05T04:56:22.304Z,1.70
2023-02-05T04:58:49.186Z,1.53
2023-02-05T05:01:18.880Z,1.60
2023-02-05T05:03:46.420Z,1.60
2023-02-05T05:06:14.472Z,1.40
2023-02-05T05:08:42.000Z,1.30
2023-02-05T05:11:11.711Z,1.40
2023-02-05T05:13:39.246Z,1.40
2023-02-05T05:16:07.889Z,1.40
2023-02-05T05:18:35.270Z,1.60
2023-02-05T05:21:02.983Z,1.40
2023-02-05T05:23:30.634Z,1.80
2023-02-05T05:25:57.673Z,1.60
2023-02-05T05:28:24.702Z,1.70
2023-02-05T05:30:51.616Z,1.50
2023-02-05T05:33:18.508Z,1.53
2023-02-05T05:35:46.114Z,1.40
2023-02-05T05:38:12.993Z,1.33
2023-02-05T05:40:58.884Z,1.67
2023-02-05T05:43:44.301Z,1.60
2023-02-05T05:46:11.271Z,1.70
2023-02-05T05:48:38.139Z,1.63
2023-02-05T05:51:05.617Z,1.67
2023-02-05T05:53:32.871Z,1.63
2023-02-05T05:55:59.791Z,1.77
2023-02-05T05:58:26.681Z,2.00
2023-02-05T06:00:54.697Z,1.80
2023-02-05T06:03:22.309Z,1.90
2023-02-05T06:05:49.265Z,1.50
2023-02-05T06:08:16.484Z,2.00
2023-02-05T06:10:43.463Z,2.10
2023-02-05T06:13:10.592Z,1.80
2023-02-05T06:15:37.831Z,2.00
2023-02-05T06:18:05.021Z,2.00
2023-02-05T06:20:31.891Z,2.10
2023-02-05T06:22:58.695Z,2.00
2023-02-05T06:25:25.629Z,1.80
2023-02-05T06:27:52.628Z,1.67
2023-02-05T06:30:19.762Z,2.43
2023-02-05T06:32:46.655Z,2.50
2023-02-05T06:35:13.502Z,2.00
2023-02-05T06:37:47.979Z,2.30
2023-02-05T06:40:18.050Z,1.90
2023-02-05T06:42:45.653Z,2.03
2023-02-05T06:45:12.731Z,2.00
2023-02-05T06:47:39.910Z,1.77
2023-02-05T06:50:07.303Z,1.70
2023-02-05T06:52:34.254Z,1.53
2023-02-05T06:55:01.118Z,1.60
2023-02-05T06:57:28.126Z,1.80
2023-02-05T06:59:54.974Z,1.83
2023-02-05T07:02:21.854Z,2.00
2023-02-05T07:04:48.809Z,1.90
2023-02-05T07:07:16.833Z,1.70
2023-02-05T07:09:44.364Z,2.13
2023-02-05T07:12:11.415Z,2.20
2023-02-05T07:14:39.473Z,2.03
2023-02-05T07:17:07.569Z,2.20
2023-02-05T07:19:35.800Z,2.30
2023-02-05T07:22:02.621Z,2.33
2023-02-05T07:24:29.694Z,2.63
2023-02-05T07:26:56.503Z,2.60
2023-02-05T07:29:23.386Z,3.07
2023-02-05T07:31:51.212Z,3.13
2023-02-05T07:34:18.837Z,3.33
2023-02-05T07:36:45.735Z,3.03
2023-02-05T07:39:12.676Z,4.03
2023-02-05T07:41:39.539Z,3.77
2023-02-05T07:44:06.450Z,4.00
2023-02-05T07:46:33.458Z,4.43
2023-02-05T07:49:00.326Z,5.43
2023-02-05T07:51:27.437Z,4.63
2023-02-05T07:53:54.302Z,5.40
2023-02-05T07:56:25.792Z,4.47
2023-02-05T07:58:53.191Z,4.30
2023-02-05T08:01:20.121Z,4.40
2023-02-05T08:03:46.977Z,3.67
2023-02-05T08:06:15.495Z,3.77
2023-02-05T08:08:42.534Z,3.43
2023-02-05T08:11:16.177Z,3.03
2023-02-05T08:13:43.761Z,3.30
2023-02-05T08:16:11.489Z,2.80
2023-02-05T08:18:38.691Z,3.00
2023-02-05T08:21:05.740Z,3.30
2023-02-05T08:23:32.718Z,3.47
2023-02-05T08:25:59.971Z,3.00
2023-02-05T08:28:27.892Z,3.40
2023-02-05T08:30:56.643Z,2.73
2023-02-05T08:33:23.747Z,3.40
2023-02-05T08:35:50.606Z,4.13
2023-02-05T08:38:17.564Z,3.10
2023-02-05T08:40:44.465Z,3.20
2023-02-05T08:43:11.479Z,3.70
2023-02-05T08:45:39.172Z,3.57
2023-02-05T08:48:06.111Z,3.70
2023-02-05T08:50:33.000Z,3.60
2023-02-05T08:52:59.830Z,3.70
2023-02-05T08:55:26.688Z,4.47
2023-02-05T08:57:53.566Z,3.83
2023-02-05T09:00:21.562Z,3.77
2023-02-05T09:02:48.462Z,3.80
2023-02-05T09:05:15.330Z,4.10
2023-02-05T09:07:42.368Z,3.60
2023-02-05T09:10:11.719Z,4.30
2023-02-05T09:12:39.102Z,4.50
2023-02-05T09:15:07.612Z,5.07
2023-02-05T09:17:34.826Z,4.03
2023-02-05T09:20:01.869Z,4.37
2023-02-05T09:22:28.972Z,4.50
2023-02-05T09:24:55.848Z,5.70
2023-02-05T09:27:22.791Z,4.30
2023-02-05T09:29:49.659Z,4.33
2023-02-05T09:32:16.532Z,4.27
2023-02-05T09:34:43.421Z,4.97
2023-02-05T09:37:10.303Z,3.87
2023-02-05T09:42:45.328Z,4.73
2023-02-05T09:45:40.187Z,5.50
2023-02-05T09:48:23.064Z,4.40
2023-02-05T09:50:50.479Z,10.70
2023-02-05T09:53:21.414Z,6.30
2023-02-05T09:55:49.131Z,5.53
2023-02-05T09:58:24.257Z,4.90
2023-02-05T10:01:07.322Z,4.20
2023-02-05T10:03:50.843Z,4.40
2023-02-05T10:06:55.321Z,4.77
2023-02-05T10:09:49.375Z,4.90
2023-02-05T10:12:28.279Z,5.10
2023-02-05T10:15:07.848Z,5.90
2023-02-05T10:17:46.336Z,7.57
2023-02-05T10:20:13.097Z,4.87
2023-02-05T10:23:01.807Z,5.50
2023-02-05T10:25:50.304Z,13.40
2023-02-05T10:28:36.086Z,6.93
2023-02-05T10:31:25.932Z,12.17
2023-02-05T10:33:56.139Z,9.90
2023-02-05T10:36:25.888Z,7.60
2023-02-05T10:38:55.906Z,7.03
2023-02-05T10:41:39.576Z,7.17
2023-02-05T10:44:35.574Z,5.10
2023-02-05T10:47:12.366Z,6.10
2023-02-05T10:49:52.159Z,4.80
2023-02-05T10:52:19.152Z,4.80
2023-02-05T10:54:47.350Z,5.00
2023-02-05T10:57:17.743Z,5.10
2023-02-05T11:00:04.475Z,5.00
2023-02-05T11:02:52.230Z,5.80
2023-02-05T11:05:30.505Z,5.60
2023-02-05T11:07:58.624Z,6.23
2023-02-05T11:10:31.161Z,5.93
2023-02-05T11:13:05.314Z,5.47
2023-02-05T11:15:33.662Z,5.63
2023-02-05T11:18:04.628Z,5.67
2023-02-05T11:20:37.926Z,6.20
2023-02-05T11:23:19.082Z,6.07
2023-02-05T11:26:01.653Z,5.93
2023-02-05T11:28:35.758Z,6.43
2023-02-05T11:31:31.387Z,5.87
2023-02-05T11:34:24.953Z,6.13
2023-02-05T11:36:56.764Z,6.27
2023-02-05T11:39:37.302Z,6.60
2023-02-05T11:42:20.316Z,5.37
2023-02-05T11:44:52.146Z,4.83
2023-02-05T11:47:30.152Z,6.13
2023-02-05T11:49:58.592Z,5.47
2023-02-05T11:52:30.256Z,5.73
2023-02-05T11:54:57.287Z,5.30
2023-02-05T11:57:35.379Z,5.27
2023-02-05T12:00:08.101Z,6.30
2023-02-05T12:02:37.231Z,5.10
2023-02-05T12:05:21.341Z,5.47
2023-02-05T12:07:58.482Z,5.00
2023-02-05T12:10:38.044Z,4.40
2023-02-05T12:13:36.366Z,4.73
2023-02-05T12:16:35.617Z,4.30
2023-02-05T12:19:21.070Z,4.43
2023-02-05T12:21:53.504Z,4.97
2023-02-05T12:24:35.494Z,4.87
2023-02-05T12:27:32.361Z,4.80
2023-02-05T12:30:37.989Z,4.77
2023-02-05T12:33:30.310Z,4.80
2023-02-05T12:36:26.584Z,5.17
2023-02-05T12:39:03.586Z,4.80
2023-02-05T12:41:56.225Z,5.23
2023-02-05T12:44:48.062Z,6.43
2023-02-05T12:47:56.339Z,6.57
2023-02-05T12:50:34.369Z,6.40
2023-02-05T12:53:20.066Z,5.67
2023-02-05T12:56:08.189Z,5.77
2023-02-05T12:58:49.901Z,6.27
2023-02-05T13:01:28.832Z,5.60
2023-02-05T13:04:01.288Z,5.90
2023-02-05T13:06:37.095Z,5.70
2023-02-05T13:09:18.768Z,8.03
2023-02-05T13:11:57.178Z,8.90
2023-02-05T13:14:36.601Z,8.43
2023-02-05T13:17:11.627Z,7.63
2023-02-05T13:19:41.188Z,8.63
2023-02-05T13:22:38.382Z,7.40
2023-02-05T13:25:48.715Z,7.53
2023-02-05T13:28:42.873Z,7.57
2023-02-05T13:31:21.485Z,7.10
2023-02-05T13:33:49.364Z,7.03
2023-02-05T13:36:25.023Z,9.90
2023-02-05T13:39:34.294Z,8.10
2023-02-05T13:42:04.588Z,7.77
2023-02-05T13:44:55.711Z,8.50
2023-02-05T13:47:38.884Z,8.97
2023-02-05T13:50:44.476Z,7.83
2023-02-05T13:53:42.387Z,6.70
2023-02-05T13:56:34.914Z,8.00
2023-02-05T13:59:12.757Z,7.37
2023-02-05T14:01:44.775Z,8.83
2023-02-05T14:04:24.036Z,6.73
2023-02-05T14:07:04.665Z,6.60
2023-02-05T14:09:40.628Z,7.73
2023-02-05T14:12:11.157Z,9.07
2023-02-05T14:14:41.958Z,9.00
2023-02-05T14:17:27.662Z,8.13
2023-02-05T14:20:01.125Z,8.00
2023-02-05T14:22:44.052Z,9.93
2023-02-05T14:25:38.873Z,13.47
2023-02-05T14:28:08.899Z,13.80
2023-02-05T14:30:44.948Z,12.57
2023-02-05T14:33:27.211Z,14.17
2023-02-05T14:36:16.185Z,13.47
2023-02-05T14:38:51.129Z,11.43
2023-02-05T14:41:52.376Z,8.30
2023-02-05T14:44:28.184Z,7.47
2023-02-05T14:47:00.095Z,7.30
2023-02-05T14:49:33.043Z,7.53
2023-02-05T14:52:02.915Z,7.13
2023-02-05T14:54:38.059Z,6.57
2023-02-05T14:57:38.454Z,6.47
2023-02-05T15:00:21.779Z,6.43
2023-02-05T15:02:58.338Z,6.97
2023-02-05T15:05:37.865Z,6.23
2023-02-05T15:08:35.110Z,6.97
2023-02-05T15:11:17.172Z,6.47
2023-02-05T15:14:19.657Z,6.87
2023-02-05T15:16:47.814Z,5.73
2023-02-05T15:19:18.754Z,5.80
2023-02-05T15:21:52.058Z,5.37
2023-02-05T15:24:23.991Z,5.43
2023-02-05T15:27:13.192Z,5.23
2023-02-05T15:29:57.194Z,5.07
2023-02-05T15:32:36.195Z,4.93
2023-02-05T15:35:07.840Z,5.83
2023-02-05T15:37:48.429Z,5.70
2023-02-05T15:40:31.999Z,6.23
2023-02-05T15:43:15.092Z,6.47
2023-02-05T15:45:45.168Z,6.70
2023-02-05T15:48:17.170Z,6.10
2023-02-05T15:50:48.356Z,10.20
2023-02-05T15:53:37.422Z,8.10
2023-02-05T15:56:12.858Z,8.40
2023-02-05T15:58:45.800Z,7.03
2023-02-05T16:01:26.505Z,5.97
2023-02-05T16:03:53.378Z,6.60
2023-02-05T16:06:21.980Z,6.40
2023-02-05T16:08:52.428Z,5.90
2023-02-05T16:11:27.517Z,5.73
2023-02-05T16:14:07.579Z,6.17
2023-02-05T16:16:38.328Z,5.90
2023-02-05T16:19:09.768Z,7.33
2023-02-05T16:21:45.503Z,5.60
2023-02-05T16:24:25.869Z,6.30
2023-02-05T16:27:02.435Z,5.87
2023-02-05T16:29:47.613Z,5.40
2023-02-05T16:32:39.295Z,5.43
2023-02-05T16:35:15.538Z,5.30
2023-02-05T16:37:42.846Z,5.27
2023-02-05T16:40:12.267Z,6.67
2023-02-05T16:42:43.281Z,4.87
2023-02-05T16:45:10.354Z,4.90
2023-02-05T16:47:37.796Z,4.83
2023-02-05T16:50:37.730Z,6.23
2023-02-05T16:53:26.127Z,8.40
2023-02-05T16:55:58.435Z,11.70
2023-02-05T16:58:28.171Z,11.33
2023-02-05T17:00:58.296Z,12.07
2023-02-05T17:03:28.784Z,12.83
2023-02-05T17:06:00.420Z,11.93
2023-02-05T17:08:33.528Z,10.97
2023-02-05T17:11:06.760Z,12.20
2023-02-05T17:13:44.207Z,10.97
2023-02-05T17:16:25.926Z,9.50
2023-02-05T17:19:06.205Z,12.90
2023-02-05T17:21:34.997Z,15.70
2023-02-05T17:24:04.973Z,10.20
2023-02-05T17:26:35.235Z,10.53
2023-02-05T17:29:04.995Z,11.23
2023-02-05T17:31:38.418Z,13.60
2023-02-05T17:34:05.425Z,11.17
2023-02-05T17:36:32.528Z,14.70
2023-02-05T17:38:59.391Z,14.73
2023-02-05T17:41:46.820Z,12.60
2023-02-05T17:44:17.937Z,13.13
2023-02-05T17:46:46.515Z,13.73
2023-02-05T17:49:13.428Z,11.83
2023-02-05T17:51:42.834Z,14.73
2023-02-05T17:54:18.286Z,16.03
2023-02-05T17:56:48.269Z,13.77
2023-02-05T17:59:19.152Z,11.90
2023-02-05T18:01:47.221Z,13.03
2023-02-05T18:04:14.912Z,13.60
2023-02-05T18:06:42.983Z,11.37
2023-02-05T18:09:10.608Z,11.50
2023-02-05T18:11:37.541Z,12.57
2023-02-05T18:14:05.126Z,12.17
2023-02-05T18:16:32.485Z,12.67
2023-02-05T18:18:59.398Z,14.00
2023-02-05T18:21:26.330Z,13.57
2023-02-05T18:23:53.320Z,13.33
2023-02-05T18:26:20.584Z,13.07
2023-02-05T18:28:47.605Z,13.60
2023-02-05T18:31:15.026Z,12.27
2023-02-05T18:33:42.354Z,13.30
2023-02-05T18:36:12.348Z,17.67
2023-02-05T18:38:40.551Z,14.60
2023-02-05T18:41:21.820Z,14.47
2023-02-05T18:43:48.823Z,12.23
2023-02-05T18:46:17.859Z,12.87
2023-02-05T18:48:49.421Z,13.20
2023-02-05T18:51:19.377Z,12.83
2023-02-05T18:53:47.473Z,12.50
2023-02-05T18:56:23.094Z,12.10
2023-02-05T18:58:59.242Z,13.37
2023-02-05T19:01:26.943Z,13.37
2023-02-05T19:03:54.763Z,13.10
2023-02-05T19:06:22.292Z,12.73
2023-02-05T19:08:50.297Z,12.07
2023-02-05T19:11:22.930Z,13.57
2023-02-05T19:14:04.579Z,12.60
2023-02-05T19:16:33.235Z,13.50
2023-02-05T19:19:01.888Z,12.33
2023-02-05T19:21:30.765Z,13.80
2023-02-05T19:24:05.339Z,14.13
2023-02-05T19:26:34.541Z,13.23
2023-02-05T19:29:04.758Z,14.30
2023-02-05T19:31:33.541Z,13.33
2023-02-05T19:34:00.903Z,13.67
2023-02-05T19:36:28.930Z,14.17
2023-02-05T19:38:55.913Z,15.23
2023-02-05T19:41:26.209Z,14.03
2023-02-05T19:43:58.015Z,15.70
2023-02-05T19:46:27.897Z,15.40
2023-02-05T19:48:56.398Z,16.00
2023-02-05T19:51:23.295Z,14.33
2023-02-05T19:53:50.228Z,15.40
2023-02-05T19:56:22.302Z,15.70
2023-02-05T19:58:51.662Z,15.23
2023-02-05T20:01:24.920Z,14.50
2023-02-05T20:03:54.176Z,14.77
2023-02-05T20:06:22.967Z,15.20
2023-02-05T20:08:49.887Z,13.97
2023-02-05T20:11:17.900Z,13.33
2023-02-05T20:13:46.628Z,15.00
2023-02-05T20:16:16.548Z,13.67
2023-02-05T20:18:44.322Z,14.90
2023-02-05T20:21:16.955Z,13.60
2023-02-05T20:23:44.063Z,14.90
2023-02-05T20:26:11.925Z,14.40
2023-02-05T20:28:59.173Z,13.37
2023-02-05T20:31:34.941Z,14.47
2023-02-05T20:34:03.855Z,15.57
2023-02-05T20:36:32.021Z,15.17
2023-02-05T20:39:00.451Z,14.27
2023-02-05T20:41:28.106Z,14.43
2023-02-05T20:43:56.317Z,13.50
2023-02-05T20:46:24.069Z,15.20
2023-02-05T20:48:51.475Z,13.63
2023-02-05T20:51:20.625Z,13.57
2023-02-05T20:53:48.337Z,16.93
2023-02-05T20:56:17.840Z,15.00
2023-02-05T20:58:45.038Z,13.67
2023-02-05T21:01:16.095Z,14.83
2023-02-05T21:03:48.229Z,14.03
2023-02-05T21:06:15.923Z,14.93
2023-02-05T21:08:45.290Z,14.77
2023-02-05T21:11:15.780Z,14.63
2023-02-05T21:13:44.269Z,13.67
2023-02-05T21:16:12.226Z,12.97
2023-02-05T21:18:40.383Z,12.87
2023-02-05T21:21:14.196Z,12.83
2023-02-05T21:23:41.796Z,14.93
2023-02-05T21:26:16.852Z,13.20
2023-02-05T21:28:43.784Z,12.97
2023-02-05T21:31:10.784Z,12.30
2023-02-05T21:33:37.756Z,12.73
2023-02-05T21:36:06.651Z,13.77
2023-02-05T21:38:40.771Z,13.07
2023-02-05T21:41:09.738Z,13.40
2023-02-05T21:43:36.819Z,13.83
2023-02-05T21:46:05.759Z,13.70
2023-02-05T21:48:32.999Z,13.43
2023-02-05T21:51:00.294Z,13.03
2023-02-05T21:53:28.295Z,12.50
2023-02-05T21:55:55.390Z,12.03
2023-02-05T21:58:22.520Z,12.23
2023-02-05T22:00:49.472Z,12.00
2023-02-05T22:03:16.407Z,11.67
2023-02-05T22:05:43.308Z,11.90
2023-02-05T22:08:11.869Z,12.50
2023-02-05T22:10:38.954Z,11.73
2023-02-05T22:13:05.812Z,12.13
2023-02-05T22:15:33.232Z,12.73
2023-02-05T22:18:00.191Z,12.47
2023-02-05T22:20:27.064Z,12.37
2023-02-05T22:22:53.930Z,15.80
2023-02-05T22:25:20.888Z,13.50
2023-02-05T22:27:47.722Z,15.03
2023-02-05T22:30:14.737Z,15.47
2023-02-05T22:32:41.570Z,16.73
2023-02-05T22:35:08.606Z,15.43
2023-02-05T22:37:35.435Z,16.73
2023-02-05T22:40:02.297Z,16.90
2023-02-05T22:42:29.540Z,15.67
2023-02-05T22:44:56.397Z,15.40
2023-02-05T22:47:24.141Z,16.10
2023-02-05T22:49:50.999Z,15.40
2023-02-05T22:52:17.886Z,15.33
2023-02-05T22:54:44.699Z,15.47
2023-02-05T22:57:11.666Z,15.03
2023-02-05T22:59:38.541Z,14.47
2023-02-05T23:02:05.502Z,15.90
2023-02-05T23:04:32.349Z,14.43
2023-02-05T23:06:59.268Z,14.27
2023-02-05T23:09:26.286Z,14.10
2023-02-05T23:11:54.918Z,14.17
2023-02-05T23:14:22.046Z,13.80
2023-02-05T23:16:48.961Z,12.23
2023-02-05T23:19:18.996Z,13.07
2023-02-05T23:21:47.219Z,12.53
2023-02-05T23:24:14.976Z,12.30
2023-02-05T23:26:45.177Z,11.60
2023-02-05T23:29:14.201Z,12.13
2023-02-05T23:31:41.878Z,12.73
2023-02-05T23:34:09.282Z,11.30
2023-02-05T23:36:36.338Z,11.60
2023-02-05T23:39:03.862Z,12.07
2023-02-05T23:41:36.728Z,11.60
2023-02-05T23:44:18.699Z,10.50
2023-02-05T23:46:47.627Z,10.73
2023-02-05T23:49:15.270Z,10.93
2023-02-05T23:51:42.526Z,11.60
2023-02-05T23:54:11.108Z,11.43
2023-02-05T23:56:38.029Z,11.70
2023-02-05T23:59:06.836Z,12.00
